Latest Weather Observations for Cunderdin Airport

IDW60801

Issued at 3:03 pm WST Tuesday 26 May 2020 (issued every 10 minutes, with the page automatically refreshed every 10 minutes)

About weather observations | Map of weather stations | Latest weather observations for WA | Other Formats
Station Details ID: 010286 Name: CUNDERDIN AIRFIELD Lat: -31.62 Lon: 117.22 Height: 216.7 m
Data from the previous 72 hours. | See also: Recent months at Cunderdin Airport
Date/Time
WST
Temp
°C
App
Temp
°C
Dew
Point
°C
Rel
Hum
%
Delta-T
°C
Wind Press
QNH
hPa
Press
MSL
hPa
Rain since
9am
mm
Dir  Spd
km/h
Gust
km/h
Spd
kts
Gust
kts
26/03:00pm 15.7 13.3 7.0 56 4.3 WSW 9 13 5 7 1020.3 1020.0 0.0
26/02:30pm 15.6 11.7 6.9 56 4.3 SW 17 22 9 12 1020.2 1019.9 0.0
26/02:00pm 16.1 12.9 6.8 54 4.6 WSW 13 19 7 10 1020.0 1019.7 0.0
26/01:30pm 15.7 12.2 7.0 56 4.3 WSW 15 20 8 11 1020.1 1019.8 0.0
26/01:00pm 15.8 13.4 6.8 55 4.5 WSW 9 17 5 9 1020.2 1019.9 0.0
26/12:30pm 15.8 13.2 7.8 59 4.1 S 11 19 6 10 1020.4 1020.1 0.0
26/12:00pm 15.3 12.3 7.8 61 3.8 SW 13 20 7 11 1020.8 1020.6 0.0
26/11:30am 14.7 11.7 7.7 63 3.5 SSW 13 19 7 10 1021.1 1020.9 0.0
26/11:00am 14.3 11.4 8.0 66 3.2 SSW 13 19 7 10 1021.2 1021.0 0.0
26/10:30am 13.5 10.8 7.3 66 3.1 SW 11 17 6 9 1021.5 1021.3 0.0
26/10:00am 12.6 10.1 8.3 75 2.1 W 11 17 6 9 1021.5 1021.3 0.0
26/09:30am 11.7 8.8 8.2 79 1.7 W 13 15 7 8 1021.4 1021.2 0.0
26/09:00am 11.5 9.2 9.1 85 1.2 WNW 11 13 6 7 1021.2 1021.0 3.8
26/08:30am 10.8 8.1 9.1 89 0.9 WNW 13 17 7 9 1021.1 1020.9 3.8
26/08:00am 9.2 7.1 8.3 94 0.4 WNW 9 13 5 7 1020.4 1020.1 3.8
26/07:30am 8.1 6.2 7.5 96 0.3 W 7 9 4 5 1020.0 1019.7 3.8
26/07:00am 8.3 6.4 7.7 96 0.3 WNW 7 9 4 5 1019.5 1019.2 3.8
26/06:30am 8.6 6.8 8.0 96 0.3 WNW 7 9 4 5 1019.0 1018.8 3.8
26/06:00am 8.2 6.0 7.8 97 0.2 WNW 9 11 5 6 1018.8 1018.6 3.8
26/05:30am 7.9 6.0 7.5 97 0.2 WSW 7 9 4 5 1018.8 1018.6 3.8
26/05:00am 7.5 5.7 7.1 97 0.2 WSW 6 7 3 4 1018.6 1018.4 3.8
26/04:30am 7.2 4.8 6.8 97 0.2 WNW 9 13 5 7 1018.3 1018.1 3.6
26/04:00am 6.5 3.5 6.1 97 0.2 WNW 11 13 6 7 1018.2 1018.0 3.6
26/03:30am 6.1 3.8 5.5 96 0.3 W 7 11 4 6 1018.0 1017.8 3.6
26/03:00am 6.5 4.2 5.8 95 0.3 W 7 9 4 5 1017.8 1017.6 3.6
26/02:30am 6.6 4.0 5.9 95 0.3 WNW 9 9 5 5 1017.6 1017.4 3.6
26/02:00am 6.9 3.9 5.8 93 0.5 WNW 11 13 6 7 1017.6 1017.4 3.6
26/01:30am 7.3 4.0 6.4 94 0.4 NW 13 15 7 8 1017.5 1017.3 3.6
26/01:00am 7.5 4.6 6.3 92 0.6 W 11 13 6 7 1017.3 1017.1 3.6
26/12:30am 7.7 5.2 6.5 92 0.6 WNW 9 11 5 6 1017.2 1017.0 3.6
26/12:00am 8.4 5.2 6.9 90 0.7 WNW 13 15 7 8 1016.9 1016.7 3.6
 
Date/Time
WST
Temp
°C
App
Temp
°C
Dew
Point
°C
Rel
Hum
%
Delta-T
°C
Wind Press
QNH
hPa
Press
MSL
hPa
Rain since
9am
mm
Dir  Spd
km/h
Gust
km/h
Spd
kts
Gust
kts
25/11:30pm 8.9 6.2 7.5 91 0.7 NW 11 13 6 7 1016.9 1016.7 3.6
25/11:00pm 9.5 6.5 7.6 88 0.9 W 13 15 7 8 1016.8 1016.6 3.6
25/10:30pm 9.4 6.4 7.7 89 0.8 WNW 13 19 7 10 1016.5 1016.2 3.6
25/10:00pm 9.2 5.8 7.5 89 0.8 WNW 15 19 8 10 1016.3 1016.0 3.6
25/09:30pm 9.2 6.2 7.6 90 0.8 W 13 17 7 9 1016.1 1015.8 3.6
25/09:00pm 8.9 5.4 7.2 89 0.8 W 15 19 8 10 1015.7 1015.4 3.6
25/08:30pm 8.7 5.5 6.8 88 0.9 W 13 19 7 10 1015.2 1014.9 3.6
25/08:00pm 9.0 5.0 6.6 85 1.1 W 17 24 9 13 1014.6 1014.3 3.6
25/07:30pm 9.1 5.1 6.5 84 1.2 W 17 20 9 11 1013.9 1013.7 3.6
25/07:00pm 9.8 5.3 6.3 79 1.6 W 19 26 10 14 1013.2 1013.0 3.6
25/06:30pm 10.1 4.2 5.9 75 2.0 WSW 26 32 14 17 1012.7 1012.5 3.6
25/06:00pm 10.4 3.3 6.2 75 2.0 WSW 33 43 18 23 1012.0 1011.7 3.6
25/05:45pm 10.7 4.1 6.1 73 2.2 WSW 30 48 16 26 1011.9 1011.6 3.6
25/05:30pm 10.5 4.0 6.5 76 1.9 WSW 30 41 16 22 1011.4 1011.1 3.6
25/05:00pm 10.6 4.7 7.3 80 1.6 SW 28 37 15 20 1010.6 1010.3 3.6
25/04:30pm 11.1 4.9 8.0 81 1.5 SW 30 37 16 20 1009.9 1009.6 3.6
25/04:05pm 11.0 5.3 8.2 83 1.4 WSW 28 48 15 26 1009.4 1009.2 3.6
25/04:00pm 10.8 4.7 8.4 85 1.2 WSW 30 41 16 22 1009.3 1009.1 3.6
25/03:52pm 10.7 4.7 8.6 87 1.0 WSW 30 41 16 22 1009.2 1009.0 3.6
25/03:30pm 9.3 1.2 6.9 85 1.1 WSW 39 61 21 33 1009.0 1008.8 2.6
25/03:29pm 9.8 2.1 7.1 83 1.3 WSW 37 61 20 33 1009.0 1008.8 2.0
25/03:27pm 11.8 5.1 8.1 78 1.8 WSW 33 61 18 33 1008.9 1008.7 1.4
25/03:00pm 13.5 4.9 6.6 63 3.4 W 41 52 22 28 1007.9 1007.6 1.0
25/02:30pm 13.4 3.2 7.0 65 3.1 WSW 50 70 27 38 1007.4 1007.1 1.0
25/02:00pm 14.3 4.6 7.4 63 3.4 WSW 48 69 26 37 1006.6 1006.3 1.0
25/01:30pm 13.0 4.1 9.1 77 2.0 WSW 46 67 25 36 1006.2 1005.9 1.0
25/01:04pm 15.6 4.9 6.6 55 4.4 W 52 70 28 38 1005.5 1005.2 1.0
25/01:00pm 16.0 6.0 7.7 58 4.2 W 50 65 27 35 1005.5 1005.2 1.0
25/12:30pm 15.6 5.5 7.4 58 4.1 W 50 69 27 37 1005.4 1005.1 1.0
25/12:01pm 15.7 5.4 8.2 61 3.8 W 52 70 28 38 1005.2 1004.9 1.0
25/12:00pm 15.7 5.9 8.7 63 3.6 W 50 67 27 36 1005.3 1005.0 1.0
25/11:30am 15.1 6.5 10.3 73 2.5 W 46 65 25 35 1005.3 1005.0 1.0
25/11:01am 13.4 4.1 10.4 82 1.6 W 50 72 27 39 1005.6 1005.3 1.0
25/11:00am 13.3 4.3 10.1 81 1.7 W 48 72 26 39 1005.6 1005.3 1.0
25/10:56am 13.4 6.1 10.2 81 1.7 W 39 72 21 39 1005.6 1005.3 1.0
25/10:53am 14.3 8.7 11.5 83 1.5 W 32 56 17 30 1005.6 1005.3 0.6
25/10:30am 14.0 7.3 12.2 89 1.0 W 39 54 21 29 1005.2 1004.9 0.6
25/10:00am 14.3 8.3 12.0 86 1.3 W 35 44 19 24 1004.9 1004.6 0.4
25/09:53am 14.2 8.8 12.2 88 1.1 W 32 43 17 23 1004.8 1004.4 0.4
25/09:31am 14.4 8.0 12.1 86 1.3 WNW 37 61 20 33 1004.2 1003.9 0.2
25/09:30am 14.4 8.4 12.1 86 1.3 WNW 35 48 19 26 1004.1 1003.8 0.2
25/09:27am 14.4 8.8 12.1 86 1.3 WNW 33 44 18 24 1004.1 1003.8 0.2
25/09:00am 15.3 8.3 11.3 77 2.2 WNW 39 52 21 28 1003.3 1003.0 12.2
25/08:34am 15.1 9.0 10.5 74 2.4 WNW 33 56 18 30 1003.0 1002.7 12.2
25/08:30am 15.0 9.3 11.2 78 2.0 WNW 32 41 17 22 1002.9 1002.6 12.2
25/08:00am 14.5 7.8 10.9 79 1.9 WNW 37 54 20 29 1002.4 1002.1 12.2
25/07:30am 14.3 7.8 11.8 85 1.4 WNW 37 46 20 25 1002.0 1001.7 12.2
25/07:10am 14.4 9.1 13.0 91 0.8 W 33 43 18 23 1001.8 1001.5 12.2
25/07:00am 14.3 9.0 13.0 92 0.7 W 33 44 18 24 1001.5 1001.2 12.2
25/06:59am 14.4 9.1 13.0 91 0.8 W 33 44 18 24 1001.5 1001.2 12.2
25/06:45am 14.5 9.4 13.2 92 0.7 WNW 32 43 17 23 1001.1 1000.8 12.2
25/06:35am 14.4 8.8 13.3 93 0.6 WNW 35 50 19 27 1000.8 1000.4 12.2
25/06:33am 14.4 8.4 13.3 93 0.6 WNW 37 50 20 27 1000.8 1000.4 12.2
25/06:30am 14.4 8.4 13.3 93 0.6 WNW 37 50 20 27 1000.7 1000.3 12.2
25/06:00am 14.4 9.4 13.9 97 0.3 WNW 33 41 18 22 999.8 999.5 11.8
25/05:47am 14.3 9.4 13.8 97 0.3 WNW 32 44 17 24 999.6 999.3 11.4
25/05:30am 14.2 9.7 13.7 97 0.3 NW 30 39 16 21 999.3 999.0 10.4
25/05:12am 14.2 8.2 13.4 95 0.4 NW 37 48 20 26 999.0 998.7 9.0
25/05:09am 14.2 8.2 13.4 95 0.4 NW 37 48 20 26 998.9 998.6 8.8
25/05:00am 14.1 8.1 13.3 95 0.4 NW 37 46 20 25 998.7 998.4 8.6
25/04:50am 14.0 8.0 13.2 95 0.4 NW 37 48 20 26 998.7 998.4 8.4
25/04:30am 14.2 6.4 13.1 93 0.6 NW 46 65 25 35 998.4 998.1 8.2
25/04:27am 14.3 6.5 12.9 91 0.8 NW 46 65 25 35 998.3 998.0 8.2
25/04:00am 13.8 7.1 12.4 91 0.8 NNW 39 52 21 28 997.9 997.6 8.2
25/03:39am 13.9 6.7 11.9 88 1.1 NNW 41 59 22 32 997.7 997.4 8.2
25/03:30am 13.9 6.3 11.8 87 1.1 NNW 43 57 23 31 997.8 997.5 8.2
25/03:20am 14.0 6.4 11.7 86 1.2 NNW 43 63 23 34 997.9 997.6 8.2
25/03:00am 14.1 6.8 11.4 84 1.5 NNW 41 54 22 29 998.1 997.8 8.2
25/02:49am 14.1 7.1 11.3 83 1.5 NNW 39 57 21 31 998.0 997.7 8.2
25/02:30am 14.1 7.1 11.3 83 1.5 NNW 39 52 21 28 998.2 997.9 8.2
25/02:00am 13.8 7.9 11.1 84 1.5 NNW 33 44 18 24 998.0 997.7 8.2
25/01:30am 13.9 8.0 11.1 83 1.5 NNW 33 50 18 27 997.9 997.6 8.2
25/01:00am 14.2 7.6 11.4 83 1.5 N 37 48 20 26 998.1 997.8 8.2
25/12:30am 14.1 6.7 11.1 82 1.6 NNW 41 54 22 29 998.3 998.0 8.2
25/12:05am 14.4 7.7 11.0 80 1.8 NNW 37 56 20 30 998.6 998.3 8.2
25/12:00am 14.2 8.1 11.7 85 1.4 N 35 48 19 26 998.7 998.4 8.2
 
Date/Time
WST
Temp
°C
App
Temp
°C
Dew
Point
°C
Rel
Hum
%
Delta-T
°C
Wind Press
QNH
hPa
Press
MSL
hPa
Rain since
9am
mm
Dir  Spd
km/h
Gust
km/h
Spd
kts
Gust
kts
24/11:30pm 14.0 6.2 11.3 84 1.5 NNW 43 56 23 30 999.4 999.1 8.2
24/11:20pm 13.4 6.5 11.6 89 1.0 NNW 39 61 21 33 999.8 999.5 8.2
24/11:00pm 13.0 6.7 12.4 96 0.3 NNW 37 56 20 30 1000.1 999.7 7.8
24/10:32pm 12.6 4.0 11.8 95 0.4 N 48 67 26 36 999.2 998.9 7.0
24/10:30pm 12.6 4.0 11.7 94 0.5 N 48 61 26 33 999.1 998.8 6.8
24/10:15pm 12.0 4.0 11.2 95 0.4 N 44 56 24 30 999.4 999.1 6.6
24/10:00pm 11.7 3.6 10.9 95 0.4 N 44 63 24 34 999.4 999.1 6.2
24/09:30pm 11.5 4.3 10.4 93 0.6 N 39 57 21 31 1000.1 999.7 5.2
24/09:29pm 11.5 3.8 10.2 92 0.7 N 41 57 22 31 1000.1 999.7 5.2
24/09:24pm 11.6 4.3 10.2 91 0.7 N 39 57 21 31 1000.4 1000.0 5.2
24/09:00pm 11.9 4.6 10.1 89 0.9 N 39 57 21 31 1001.2 1000.9 4.0
24/08:56pm 12.0 4.7 10.1 88 1.0 N 39 57 21 31 1001.2 1000.9 4.0
24/08:55pm 12.0 4.2 9.9 87 1.1 N 41 57 22 31 1001.2 1000.9 4.0
24/08:40pm 12.3 4.1 9.7 84 1.3 N 43 63 23 34 1001.3 1001.0 4.0
24/08:30pm 12.1 4.6 9.5 84 1.3 N 39 52 21 28 1001.4 1001.1 3.8
24/08:19pm 12.3 5.5 9.3 82 1.5 N 35 54 19 29 1000.9 1000.5 3.8
24/08:00pm 11.8 6.0 9.4 85 1.2 N 30 39 16 21 1000.5 1000.1 3.6
24/07:30pm 11.4 5.6 9.5 88 1.0 N 30 39 16 21 1001.0 1000.7 3.2
24/07:03pm 12.6 3.5 8.3 75 2.2 N 46 65 25 35 1000.9 1000.5 2.6
24/07:00pm 12.8 3.2 8.1 73 2.4 N 48 65 26 35 1001.1 1000.8 2.6
24/06:36pm 13.5 7.2 7.3 66 3.1 N 30 61 16 33 1001.2 1000.9 2.2
24/06:30pm 13.3 7.4 7.5 68 2.9 NNE 28 41 15 22 1000.8 1000.4 2.2
24/06:00pm 12.6 5.8 7.5 71 2.5 N 33 48 18 26 1000.5 1000.1 1.8
24/05:56pm 12.7 5.1 7.4 70 2.6 NNE 37 50 20 27 1000.3 999.9 1.8
24/05:30pm 13.8 4.9 6.7 62 3.5 NNE 43 69 23 37 999.5 999.2 1.4
24/05:27pm 13.4 5.7 7.0 65 3.1 NNE 37 61 20 33 999.5 999.2 1.0
24/05:00pm 14.1 5.1 6.2 59 3.9 NNE 43 57 23 31 999.3 999.0 0.8
24/04:53pm 14.0 5.3 6.1 59 3.8 NNE 41 57 22 31 999.6 999.3 0.6
24/04:39pm 14.6 5.3 5.1 53 4.5 NNE 43 65 23 35 999.7 999.4 0.4
24/04:38pm 14.6 5.3 5.1 53 4.5 NNE 43 57 23 31 999.8 999.5 0.2
24/04:30pm 16.8 7.0 2.4 38 6.6 NNE 43 57 23 31 999.7 999.4 0.0
24/04:00pm 18.4 8.6 -0.4 28 8.3 NE 41 59 22 32 999.2 998.9 0.0
24/03:54pm 18.8 9.3 -1.1 26 8.6 NE 39 59 21 32 999.6 999.3 0.0
24/03:30pm 17.4 10.4 1.8 35 7.1 NE 28 39 15 21 1001.1 1000.8 0.0
24/03:15pm 16.8 10.0 3.1 40 6.3 NNE 28 37 15 20 1001.7 1001.4 0.0
24/03:03pm 15.9 8.9 4.3 46 5.5 NE 30 43 16 23 1002.3 1002.0 0.0
24/03:00pm 16.3 8.6 3.4 42 6.0 NE 33 43 18 23 1001.8 1001.5 0.0
24/02:51pm 16.1 8.6 4.2 45 5.6 NE 33 43 18 23 1001.9 1001.6 0.0
24/02:30pm 16.7 8.9 2.7 39 6.4 NNE 33 44 18 24 1003.1 1002.8 0.0
24/02:05pm 16.8 7.9 2.8 39 6.4 NNE 39 57 21 31 1003.6 1003.3 0.0
24/02:00pm 17.1 7.3 2.3 37 6.8 NNE 43 57 23 31 1003.6 1003.3 0.0
24/01:30pm 17.1 7.8 2.7 38 6.6 NNE 41 57 22 31 1005.0 1004.7 0.0
24/01:06pm 20.8 9.5 -4.4 18 10.4 NNE 46 65 25 35 1005.3 1005.0 0.0
24/01:00pm 20.7 9.4 -4.4 18 10.4 NNE 46 61 25 33 1005.6 1005.3 0.0
24/12:45pm 21.0 10.1 -4.2 18 10.4 NNE 44 63 24 34 1006.1 1005.8 0.0
24/12:39pm 20.7 9.9 -3.7 19 10.2 NNE 44 59 24 32 1006.1 1005.8 0.0
24/12:36pm 20.7 10.1 -3.7 19 10.2 NNE 43 59 23 32 1006.0 1005.7 0.0
24/12:30pm 20.9 10.2 -4.3 18 10.4 NNE 43 56 23 30 1006.1 1005.8 0.0
24/12:02pm 20.6 7.9 -3.8 19 10.2 NNE 54 72 29 39 1006.8 1006.5 0.0
24/12:00pm 20.5 7.4 -3.9 19 10.2 NNE 56 72 30 39 1006.9 1006.6 0.0
24/11:42am 20.7 8.8 -3.0 20 10.0 NNE 50 69 27 37 1007.3 1007.0 0.0
24/11:39am 20.6 8.2 -3.8 19 10.2 NNE 52 69 28 37 1007.4 1007.1 0.0
24/11:30am 20.8 8.5 -3.6 19 10.2 NNE 52 67 28 36 1007.9 1007.6 0.0
24/11:00am 21.0 9.9 -2.8 20 10.2 NNE 46 65 25 35 1008.6 1008.3 0.0
24/10:32am 19.7 8.2 -2.6 22 9.4 NNE 48 67 26 36 1009.7 1009.4 0.0
24/10:30am 19.6 7.7 -3.3 21 9.5 NNE 50 67 27 36 1009.6 1009.3 0.0
24/10:04am 19.2 9.1 -2.4 23 9.1 NE 41 59 22 32 1010.0 1009.7 0.0
24/10:00am 19.2 8.7 -2.4 23 9.1 NE 43 59 23 32 1010.0 1009.7 0.0
24/09:30am 18.6 7.2 -1.8 25 8.7 NE 48 63 26 34 1010.4 1010.1 0.0
24/09:00am 18.2 7.3 -1.6 26 8.4 NE 46 61 25 33 1011.3 1011.0 0.0
24/08:46am 17.9 7.9 -1.3 27 8.2 NNE 41 59 22 32 1011.7 1011.4 0.0
24/08:30am 17.8 8.2 -1.4 27 8.2 NE 39 50 21 27 1012.0 1011.7 0.0
24/08:00am 17.5 8.7 -1.2 28 8.0 NE 35 46 19 25 1012.5 1012.2 0.0
24/07:30am 17.4 9.2 -0.8 29 7.8 NE 32 43 17 23 1012.7 1012.5 0.0
24/07:00am 16.1 10.2 -0.6 32 7.1 ENE 20 30 11 16 1013.3 1013.1 0.0
24/06:30am 15.8 10.0 -0.4 33 6.9 ENE 20 26 11 14 1013.5 1013.3 0.0
24/06:00am 15.8 9.2 -0.4 33 6.9 NE 24 33 13 18 1013.8 1013.6 0.0
24/05:30am 15.6 8.3 -0.2 34 6.8 NE 28 35 15 19 1013.8 1013.6 0.0
24/05:00am 15.4 8.9 0.0 35 6.6 NE 24 33 13 18 1014.2 1014.0 0.0
24/04:30am 15.4 9.2 0.0 35 6.6 NE 22 30 12 16 1015.4 1015.1 0.0
24/04:00am 15.5 9.7 0.1 35 6.6 NE 20 26 11 14 1015.3 1015.0 0.0
24/03:30am 15.9 10.3 0.1 34 6.8 ENE 19 26 10 14 1016.0 1015.7 0.0
24/03:00am 16.4 10.3 0.1 33 7.1 NE 22 26 12 14 1016.4 1016.1 0.0
24/02:30am 16.7 9.5 0.4 33 7.1 NE 28 32 15 17 1016.7 1016.5 0.0
24/02:00am 16.9 10.4 0.5 33 7.2 NE 24 30 13 16 1017.6 1017.4 0.0
24/01:30am 16.8 10.3 0.5 33 7.2 NE 24 32 13 17 1018.1 1017.9 0.0
24/01:00am 16.8 10.3 0.5 33 7.1 NE 24 33 13 18 1017.7 1017.5 0.0
24/12:30am 17.0 10.1 0.2 32 7.3 NNE 26 32 14 17 1018.3 1018.1 0.0
24/12:00am 16.7 9.4 -0.1 32 7.3 NNE 28 35 15 19 1018.1 1017.9 0.0
 
Date/Time
WST
Temp
°C
App
Temp
°C
Dew
Point
°C
Rel
Hum
%
Delta-T
°C
Wind Press
QNH
hPa
Press
MSL
hPa
Rain since
9am
mm
Dir  Spd
km/h
Gust
km/h
Spd
kts
Gust
kts
23/11:30pm 16.3 9.4 0.0 33 7.0 NE 26 33 14 18 1018.2 1018.0 0.0
23/11:00pm 15.0 10.2 0.1 36 6.4 NE 15 19 8 10 1018.5 1018.3 0.0
23/10:30pm 14.0 9.5 -0.1 38 6.0 NE 13 15 7 8 1019.0 1018.8 0.0
23/10:00pm 14.3 9.8 -0.2 37 6.1 ENE 13 13 7 7 1019.5 1019.2 0.0
23/09:30pm 13.7 9.9 -0.7 37 6.0 E 9 13 5 7 1020.0 1019.7 0.0
23/09:00pm 12.9 9.1 -1.1 38 5.7 ENE 9 11 5 6 1020.2 1019.9 0.0
23/08:30pm 12.4 10.3 -1.1 39 5.5 CALM 0 7 0 4 1020.0 1019.7 0.0
23/08:00pm 12.5 8.9 -2.1 36 5.8 ENE 7 7 4 4 1019.7 1019.4 0.0
23/07:30pm 14.7 10.4 -1.8 32 6.8 ENE 11 13 6 7 1019.1 1018.9 0.0
23/07:00pm 14.7 10.4 -1.8 32 6.7 ENE 11 15 6 8 1018.5 1018.3 0.0
23/06:30pm 14.2 10.5 -2.7 31 6.8 NE 7 9 4 5 1018.5 1018.3 0.0
23/06:00pm 17.5 12.8 -1.7 27 8.1 ENE 13 15 7 8 1017.6 1017.4 0.0
23/05:30pm 19.4 14.0 -1.7 24 9.1 NE 17 20 9 11 1017.5 1017.3 0.0
23/05:00pm 22.1 15.8 -1.2 21 10.3 NE 22 32 12 17 1017.4 1017.2 0.0
23/04:30pm 23.3 16.9 -1.6 19 11.1 NNE 22 30 12 16 1017.7 1017.5 0.0
23/04:00pm 24.2 17.4 -1.6 18 11.5 NNE 24 30 13 16 1017.9 1017.7 0.0
23/03:30pm 24.7 18.0 -1.2 18 11.8 NNE 24 33 13 18 1018.5 1018.3 0.0

Other formats

Comma delimited format used in spreadsheet applications
http://www.bom.gov.au/fwo/IDW60801/IDW60801.95625.axf

JavaScript Object Notation format (JSON) in row-major order
http://www.bom.gov.au/fwo/IDW60801/IDW60801.95625.json

Data quality

Most of these data are generated automatically and are frequently updated. Quality checks on data are not normally performed. It is possible for incorrect values to appear. Refer to information at About Latest Weather Observations and please check the disclaimer before using these data.